Aerbrava en el facebook Aerbrava en el twitter Aerbrava Google+ Aerbrava instagram Aerbrava en el youtube Aerbrava tumblr Aerbrava flikr Aerbrava pinterest
Aerbrava in English aerbrava en Español
Escola de Pilots
Telèfon 972234126 972 23 41 26
 
Aerbrava in English aerbrava en Español
Aerbrava - meteorologia

Informació meteorològica aeronàutica

 

En aquest apartat apareix la informació meteorològica aeronàutica que és utilitzada a les pràctiques dels alumnes de l’Escola de Pilots del nostre centre durant la seva formació, pel que pot no ser actual i s’hauria d’utilitzar pel seu propi compte i risc. AERBRAVA no es fa responsable del seu ús.

 

TEMPS ACTUAL

Satèl·lit Meteorològic

sat24.com

Servei Meteorològic de Catalunya

 

LEGE 191900Z 23003KT 9999 FEW030 21/19 Q1021
LEGE 191830Z 23003KT 200V260 CAVOK 22/19 Q1020
LEGE 191800Z 22004KT 190V280 9999 FEW060 23/19 Q1020
LEGE 191730Z 22004KT 190V260 9999 FEW060 23/19 Q1020
LEGE 191700Z 23006KT 190V260 9999 FEW050 24/19 Q1020
LEGE 191630Z 22007KT 180V260 9999 FEW050 25/19 Q1020
LEGE 191600Z 21008KT 160V240 9999 FEW035 26/19 Q1019
TAF LEGE 191700Z 1918/2018 VRB03KT 9999 FEW030 TX33/2013Z TN16/2005Z   PROB30   TEMPO 1922/2006 3000 BR   TEMPO 2015/2018 17010KT

Aviation Weather

 
Aerbrava en el facebook Aerbrava en el twitter Aerbrava Google+ Aerbrava instagram Aerbrava en el youtube Aerbrava tumblr Aerbrava flikr Aerbrava pinterest

¡CSS Vàlid!